<?xml version="1.0" encoding="UTF-8" standalone="no" ?>
<gpx xmlns="http://www.topografix.com/GPX/1/1" xmlns:xsi="http://www.w3.org/2001/XMLSchema-instance" xsi:schemaLocation="http://www.topografix.com/GPX/1/1 http://www.topografix.com/GPX/1/1/gpx.xsd" version="1.1" creator="VisuGPX - https://www.visugpx.com">
  <metadata>
    <name>etang d'artax en boucle</name>
    <desc><![CDATA[[b][i][url][img][/img][/url][/i][/b]]]></desc>
  </metadata>
  <trk>
    <name><![CDATA[20181001220154-JZrAn]]></name>
    <trkseg>
      <trkpt lat="42.81507" lon="1.50808">
        <ele>1696</ele>
        <time>2018-10-01T12:01:44Z</time>
      </trkpt>
      <trkpt lat="42.8151" lon="1.5082">
        <ele>1697</ele>
        <time>2018-10-01T12:01:49Z</time>
      </trkpt>
      <trkpt lat="42.81519" lon="1.50825">
        <ele>1698</ele>
        <time>2018-10-01T12:01:56Z</time>
      </trkpt>
      <trkpt lat="42.81528" lon="1.50826">
        <ele>1697</ele>
        <time>2018-10-01T12:02:06Z</time>
      </trkpt>
      <trkpt lat="42.81538" lon="1.50823">
        <ele>1695</ele>
        <time>2018-10-01T12:02:17Z</time>
      </trkpt>
      <trkpt lat="42.81545" lon="1.50816">
        <ele>1697</ele>
        <time>2018-10-01T12:02:28Z</time>
      </trkpt>
      <trkpt lat="42.81554" lon="1.50812">
        <ele>1697</ele>
        <time>2018-10-01T12:02:35Z</time>
      </trkpt>
      <trkpt lat="42.81559" lon="1.50801">
        <ele>1694</ele>
        <time>2018-10-01T12:02:42Z</time>
      </trkpt>
      <trkpt lat="42.81567" lon="1.50795">
        <ele>1694</ele>
        <time>2018-10-01T12:02:48Z</time>
      </trkpt>
      <trkpt lat="42.81577" lon="1.50793">
        <ele>1698</ele>
        <time>2018-10-01T12:02:59Z</time>
      </trkpt>
      <trkpt lat="42.81586" lon="1.50792">
        <ele>1700</ele>
        <time>2018-10-01T12:03:06Z</time>
      </trkpt>
      <trkpt lat="42.81596" lon="1.50791">
        <ele>1699</ele>
        <time>2018-10-01T12:03:15Z</time>
      </trkpt>
      <trkpt lat="42.81606" lon="1.50791">
        <ele>1697</ele>
        <time>2018-10-01T12:03:24Z</time>
      </trkpt>
      <trkpt lat="42.81614" lon="1.50785">
        <ele>1697</ele>
        <time>2018-10-01T12:03:33Z</time>
      </trkpt>
      <trkpt lat="42.81623" lon="1.50779">
        <ele>1696</ele>
        <time>2018-10-01T12:03:41Z</time>
      </trkpt>
      <trkpt lat="42.81633" lon="1.50778">
        <ele>1698</ele>
        <time>2018-10-01T12:03:50Z</time>
      </trkpt>
      <trkpt lat="42.81643" lon="1.50777">
        <ele>1699</ele>
        <time>2018-10-01T12:04:01Z</time>
      </trkpt>
      <trkpt lat="42.81652" lon="1.50771">
        <ele>1695</ele>
        <time>2018-10-01T12:04:22Z</time>
      </trkpt>
      <trkpt lat="42.81661" lon="1.50771">
        <ele>1696</ele>
        <time>2018-10-01T12:04:28Z</time>
      </trkpt>
      <trkpt lat="42.8167" lon="1.50769">
        <ele>1697</ele>
        <time>2018-10-01T12:04:34Z</time>
      </trkpt>
      <trkpt lat="42.81679" lon="1.5077">
        <ele>1698</ele>
        <time>2018-10-01T12:04:42Z</time>
      </trkpt>
      <trkpt lat="42.81689" lon="1.50773">
        <ele>1698</ele>
        <time>2018-10-01T12:04:55Z</time>
      </trkpt>
      <trkpt lat="42.81697" lon="1.50779">
        <ele>1698</ele>
        <time>2018-10-01T12:05:05Z</time>
      </trkpt>
      <trkpt lat="42.81707" lon="1.50775">
        <ele>1692</ele>
        <time>2018-10-01T12:05:47Z</time>
      </trkpt>
      <trkpt lat="42.81717" lon="1.50773">
        <ele>1693</ele>
        <time>2018-10-01T12:05:55Z</time>
      </trkpt>
      <trkpt lat="42.81725" lon="1.50779">
        <ele>1695</ele>
        <time>2018-10-01T12:06:07Z</time>
      </trkpt>
      <trkpt lat="42.81733" lon="1.50786">
        <ele>1695</ele>
        <time>2018-10-01T12:06:19Z</time>
      </trkpt>
      <trkpt lat="42.81739" lon="1.50795">
        <ele>1698</ele>
        <time>2018-10-01T12:06:29Z</time>
      </trkpt>
      <trkpt lat="42.81747" lon="1.50802">
        <ele>1695</ele>
        <time>2018-10-01T12:06:38Z</time>
      </trkpt>
      <trkpt lat="42.81757" lon="1.50802">
        <ele>1697</ele>
        <time>2018-10-01T12:06:47Z</time>
      </trkpt>
      <trkpt lat="42.81766" lon="1.50798">
        <ele>1696</ele>
        <time>2018-10-01T12:06:59Z</time>
      </trkpt>
      <trkpt lat="42.81772" lon="1.50808">
        <ele>1697</ele>
        <time>2018-10-01T12:07:09Z</time>
      </trkpt>
      <trkpt lat="42.81777" lon="1.50745">
        <ele>1698</ele>
        <time>2018-10-01T12:07:47Z</time>
      </trkpt>
      <trkpt lat="42.81769" lon="1.5082">
        <ele>1703</ele>
        <time>2018-10-01T12:11:00Z</time>
      </trkpt>
      <trkpt lat="42.81779" lon="1.50823">
        <ele>1697</ele>
        <time>2018-10-01T12:11:27Z</time>
      </trkpt>
      <trkpt lat="42.81786" lon="1.50832">
        <ele>1696</ele>
        <time>2018-10-01T12:11:42Z</time>
      </trkpt>
      <trkpt lat="42.81794" lon="1.50838">
        <ele>1692</ele>
        <time>2018-10-01T12:11:50Z</time>
      </trkpt>
      <trkpt lat="42.81801" lon="1.50846">
        <ele>1689</ele>
        <time>2018-10-01T12:12:06Z</time>
      </trkpt>
      <trkpt lat="42.8181" lon="1.50852">
        <ele>1684</ele>
        <time>2018-10-01T12:12:17Z</time>
      </trkpt>
      <trkpt lat="42.81819" lon="1.50855">
        <ele>1685</ele>
        <time>2018-10-01T12:12:30Z</time>
      </trkpt>
      <trkpt lat="42.81821" lon="1.50868">
        <ele>1683</ele>
        <time>2018-10-01T12:12:41Z</time>
      </trkpt>
      <trkpt lat="42.81828" lon="1.50877">
        <ele>1683</ele>
        <time>2018-10-01T12:12:53Z</time>
      </trkpt>
      <trkpt lat="42.81837" lon="1.50884">
        <ele>1682</ele>
        <time>2018-10-01T12:13:01Z</time>
      </trkpt>
      <trkpt lat="42.81846" lon="1.50885">
        <ele>1679</ele>
        <time>2018-10-01T12:13:08Z</time>
      </trkpt>
      <trkpt lat="42.81852" lon="1.50894">
        <ele>1680</ele>
        <time>2018-10-01T12:13:23Z</time>
      </trkpt>
      <trkpt lat="42.81855" lon="1.50906">
        <ele>1678</ele>
        <time>2018-10-01T12:13:30Z</time>
      </trkpt>
      <trkpt lat="42.81863" lon="1.50911">
        <ele>1679</ele>
        <time>2018-10-01T12:13:38Z</time>
      </trkpt>
      <trkpt lat="42.81873" lon="1.50912">
        <ele>1680</ele>
        <time>2018-10-01T12:13:47Z</time>
      </trkpt>
      <trkpt lat="42.81883" lon="1.50915">
        <ele>1676</ele>
        <time>2018-10-01T12:13:57Z</time>
      </trkpt>
      <trkpt lat="42.81893" lon="1.50918">
        <ele>1676</ele>
        <time>2018-10-01T12:14:07Z</time>
      </trkpt>
      <trkpt lat="42.819" lon="1.50927">
        <ele>1678</ele>
        <time>2018-10-01T12:14:15Z</time>
      </trkpt>
      <trkpt lat="42.81906" lon="1.50936">
        <ele>1677</ele>
        <time>2018-10-01T12:14:24Z</time>
      </trkpt>
      <trkpt lat="42.81915" lon="1.50939">
        <ele>1676</ele>
        <time>2018-10-01T12:14:35Z</time>
      </trkpt>
      <trkpt lat="42.81922" lon="1.50948">
        <ele>1677</ele>
        <time>2018-10-01T12:14:47Z</time>
      </trkpt>
      <trkpt lat="42.8193" lon="1.50955">
        <ele>1675</ele>
        <time>2018-10-01T12:14:57Z</time>
      </trkpt>
      <trkpt lat="42.81933" lon="1.50967">
        <ele>1673</ele>
        <time>2018-10-01T12:15:07Z</time>
      </trkpt>
      <trkpt lat="42.81939" lon="1.50978">
        <ele>1670</ele>
        <time>2018-10-01T12:15:24Z</time>
      </trkpt>
      <trkpt lat="42.81945" lon="1.50988">
        <ele>1664</ele>
        <time>2018-10-01T12:15:47Z</time>
      </trkpt>
      <trkpt lat="42.81947" lon="1.51001">
        <ele>1664</ele>
        <time>2018-10-01T12:16:01Z</time>
      </trkpt>
      <trkpt lat="42.81942" lon="1.51011">
        <ele>1662</ele>
        <time>2018-10-01T12:16:12Z</time>
      </trkpt>
      <trkpt lat="42.81946" lon="1.51022">
        <ele>1650</ele>
        <time>2018-10-01T12:16:55Z</time>
      </trkpt>
      <trkpt lat="42.81938" lon="1.51029">
        <ele>1650</ele>
        <time>2018-10-01T12:17:05Z</time>
      </trkpt>
      <trkpt lat="42.81931" lon="1.51037">
        <ele>1646</ele>
        <time>2018-10-01T12:17:20Z</time>
      </trkpt>
      <trkpt lat="42.81938" lon="1.51046">
        <ele>1645</ele>
        <time>2018-10-01T12:17:31Z</time>
      </trkpt>
      <trkpt lat="42.81945" lon="1.51054">
        <ele>1643</ele>
        <time>2018-10-01T12:17:44Z</time>
      </trkpt>
      <trkpt lat="42.81949" lon="1.51066">
        <ele>1642</ele>
        <time>2018-10-01T12:18:01Z</time>
      </trkpt>
      <trkpt lat="42.81941" lon="1.51073">
        <ele>1636</ele>
        <time>2018-10-01T12:18:14Z</time>
      </trkpt>
      <trkpt lat="42.81935" lon="1.51084">
        <ele>1633</ele>
        <time>2018-10-01T12:18:32Z</time>
      </trkpt>
      <trkpt lat="42.81926" lon="1.51088">
        <ele>1629</ele>
        <time>2018-10-01T12:18:45Z</time>
      </trkpt>
      <trkpt lat="42.81919" lon="1.51096">
        <ele>1621</ele>
        <time>2018-10-01T12:19:07Z</time>
      </trkpt>
      <trkpt lat="42.8191" lon="1.511">
        <ele>1618</ele>
        <time>2018-10-01T12:19:20Z</time>
      </trkpt>
      <trkpt lat="42.81906" lon="1.51111">
        <ele>1619</ele>
        <time>2018-10-01T12:20:01Z</time>
      </trkpt>
      <trkpt lat="42.81909" lon="1.51125">
        <ele>1614</ele>
        <time>2018-10-01T12:20:19Z</time>
      </trkpt>
      <trkpt lat="42.81913" lon="1.51136">
        <ele>1608</ele>
        <time>2018-10-01T12:20:35Z</time>
      </trkpt>
      <trkpt lat="42.81919" lon="1.51148">
        <ele>1606</ele>
        <time>2018-10-01T12:20:44Z</time>
      </trkpt>
      <trkpt lat="42.81927" lon="1.51156">
        <ele>1605</ele>
        <time>2018-10-01T12:20:54Z</time>
      </trkpt>
      <trkpt lat="42.81932" lon="1.51166">
        <ele>1603</ele>
        <time>2018-10-01T12:21:01Z</time>
      </trkpt>
      <trkpt lat="42.81942" lon="1.51167">
        <ele>1606</ele>
        <time>2018-10-01T12:21:13Z</time>
      </trkpt>
      <trkpt lat="42.8195" lon="1.51174">
        <ele>1602</ele>
        <time>2018-10-01T12:21:41Z</time>
      </trkpt>
      <trkpt lat="42.81958" lon="1.51181">
        <ele>1601</ele>
        <time>2018-10-01T12:21:51Z</time>
      </trkpt>
      <trkpt lat="42.81966" lon="1.51185">
        <ele>1599</ele>
        <time>2018-10-01T12:22:01Z</time>
      </trkpt>
      <trkpt lat="42.81976" lon="1.51193">
        <ele>1593</ele>
        <time>2018-10-01T12:22:37Z</time>
      </trkpt>
      <trkpt lat="42.81983" lon="1.51201">
        <ele>1592</ele>
        <time>2018-10-01T12:22:50Z</time>
      </trkpt>
      <trkpt lat="42.8199" lon="1.51209">
        <ele>1589</ele>
        <time>2018-10-01T12:23:04Z</time>
      </trkpt>
      <trkpt lat="42.82" lon="1.5121">
        <ele>1585</ele>
        <time>2018-10-01T12:23:19Z</time>
      </trkpt>
      <trkpt lat="42.82009" lon="1.51216">
        <ele>1581</ele>
        <time>2018-10-01T12:23:33Z</time>
      </trkpt>
      <trkpt lat="42.82018" lon="1.51222">
        <ele>1577</ele>
        <time>2018-10-01T12:24:04Z</time>
      </trkpt>
      <trkpt lat="42.82024" lon="1.51232">
        <ele>1572</ele>
        <time>2018-10-01T12:24:20Z</time>
      </trkpt>
      <trkpt lat="42.82029" lon="1.51244">
        <ele>1567</ele>
        <time>2018-10-01T12:24:33Z</time>
      </trkpt>
      <trkpt lat="42.82037" lon="1.5125">
        <ele>1566</ele>
        <time>2018-10-01T12:24:44Z</time>
      </trkpt>
      <trkpt lat="42.82043" lon="1.51262">
        <ele>1562</ele>
        <time>2018-10-01T12:24:54Z</time>
      </trkpt>
      <trkpt lat="42.82042" lon="1.51275">
        <ele>1562</ele>
        <time>2018-10-01T12:25:01Z</time>
      </trkpt>
      <trkpt lat="42.82037" lon="1.51286">
        <ele>1559</ele>
        <time>2018-10-01T12:25:22Z</time>
      </trkpt>
      <trkpt lat="42.8204" lon="1.513">
        <ele>1554</ele>
        <time>2018-10-01T12:25:35Z</time>
      </trkpt>
      <trkpt lat="42.82034" lon="1.51311">
        <ele>1550</ele>
        <time>2018-10-01T12:25:49Z</time>
      </trkpt>
      <trkpt lat="42.82031" lon="1.51322">
        <ele>1547</ele>
        <time>2018-10-01T12:25:59Z</time>
      </trkpt>
      <trkpt lat="42.82031" lon="1.51336">
        <ele>1546</ele>
        <time>2018-10-01T12:26:10Z</time>
      </trkpt>
      <trkpt lat="42.82035" lon="1.51349">
        <ele>1541</ele>
        <time>2018-10-01T12:26:25Z</time>
      </trkpt>
      <trkpt lat="42.82026" lon="1.51359">
        <ele>1544</ele>
        <time>2018-10-01T12:31:48Z</time>
      </trkpt>
      <trkpt lat="42.82036" lon="1.51359">
        <ele>1540</ele>
        <time>2018-10-01T12:32:31Z</time>
      </trkpt>
      <trkpt lat="42.8204" lon="1.5137">
        <ele>1537</ele>
        <time>2018-10-01T12:32:47Z</time>
      </trkpt>
      <trkpt lat="42.8205" lon="1.51372">
        <ele>1537</ele>
        <time>2018-10-01T12:33:59Z</time>
      </trkpt>
      <trkpt lat="42.82052" lon="1.51386">
        <ele>1534</ele>
        <time>2018-10-01T12:34:58Z</time>
      </trkpt>
      <trkpt lat="42.82063" lon="1.51392">
        <ele>1531</ele>
        <time>2018-10-01T12:35:56Z</time>
      </trkpt>
      <trkpt lat="42.82073" lon="1.51395">
        <ele>1523</ele>
        <time>2018-10-01T12:36:01Z</time>
      </trkpt>
      <trkpt lat="42.82081" lon="1.51401">
        <ele>1521</ele>
        <time>2018-10-01T12:36:13Z</time>
      </trkpt>
      <trkpt lat="42.82088" lon="1.51409">
        <ele>1519</ele>
        <time>2018-10-01T12:36:23Z</time>
      </trkpt>
      <trkpt lat="42.82095" lon="1.51419">
        <ele>1520</ele>
        <time>2018-10-01T12:36:33Z</time>
      </trkpt>
      <trkpt lat="42.82103" lon="1.51425">
        <ele>1521</ele>
        <time>2018-10-01T12:36:45Z</time>
      </trkpt>
      <trkpt lat="42.82113" lon="1.51424">
        <ele>1509</ele>
        <time>2018-10-01T12:37:16Z</time>
      </trkpt>
      <trkpt lat="42.82122" lon="1.51428">
        <ele>1505</ele>
        <time>2018-10-01T12:37:29Z</time>
      </trkpt>
      <trkpt lat="42.8213" lon="1.51434">
        <ele>1505</ele>
        <time>2018-10-01T12:37:39Z</time>
      </trkpt>
      <trkpt lat="42.82138" lon="1.51441">
        <ele>1498</ele>
        <time>2018-10-01T12:37:51Z</time>
      </trkpt>
      <trkpt lat="42.82145" lon="1.51448">
        <ele>1495</ele>
        <time>2018-10-01T12:37:59Z</time>
      </trkpt>
      <trkpt lat="42.82153" lon="1.51456">
        <ele>1497</ele>
        <time>2018-10-01T12:38:10Z</time>
      </trkpt>
      <trkpt lat="42.82162" lon="1.5146">
        <ele>1497</ele>
        <time>2018-10-01T12:38:25Z</time>
      </trkpt>
      <trkpt lat="42.82171" lon="1.51463">
        <ele>1499</ele>
        <time>2018-10-01T12:38:37Z</time>
      </trkpt>
      <trkpt lat="42.8218" lon="1.51467">
        <ele>1499</ele>
        <time>2018-10-01T12:38:45Z</time>
      </trkpt>
      <trkpt lat="42.8219" lon="1.51466">
        <ele>1496</ele>
        <time>2018-10-01T12:38:58Z</time>
      </trkpt>
      <trkpt lat="42.82199" lon="1.51463">
        <ele>1498</ele>
        <time>2018-10-01T12:39:12Z</time>
      </trkpt>
      <trkpt lat="42.82208" lon="1.5147">
        <ele>1491</ele>
        <time>2018-10-01T12:43:36Z</time>
      </trkpt>
      <trkpt lat="42.82218" lon="1.5147">
        <ele>1485</ele>
        <time>2018-10-01T12:43:45Z</time>
      </trkpt>
      <trkpt lat="42.82227" lon="1.51476">
        <ele>1485</ele>
        <time>2018-10-01T12:43:56Z</time>
      </trkpt>
      <trkpt lat="42.82236" lon="1.51481">
        <ele>1484</ele>
        <time>2018-10-01T12:44:21Z</time>
      </trkpt>
      <trkpt lat="42.82246" lon="1.51483">
        <ele>1486</ele>
        <time>2018-10-01T12:44:34Z</time>
      </trkpt>
      <trkpt lat="42.82255" lon="1.51491">
        <ele>1487</ele>
        <time>2018-10-01T12:45:07Z</time>
      </trkpt>
      <trkpt lat="42.8226" lon="1.51507">
        <ele>1489</ele>
        <time>2018-10-01T12:45:31Z</time>
      </trkpt>
      <trkpt lat="42.82258" lon="1.51519">
        <ele>1486</ele>
        <time>2018-10-01T12:45:43Z</time>
      </trkpt>
      <trkpt lat="42.82258" lon="1.51532">
        <ele>1482</ele>
        <time>2018-10-01T12:45:54Z</time>
      </trkpt>
      <trkpt lat="42.82265" lon="1.51542">
        <ele>1477</ele>
        <time>2018-10-01T12:46:42Z</time>
      </trkpt>
      <trkpt lat="42.82273" lon="1.51549">
        <ele>1473</ele>
        <time>2018-10-01T12:47:03Z</time>
      </trkpt>
      <trkpt lat="42.82282" lon="1.51556">
        <ele>1470</ele>
        <time>2018-10-01T12:47:49Z</time>
      </trkpt>
      <trkpt lat="42.82288" lon="1.51567">
        <ele>1468</ele>
        <time>2018-10-01T12:47:56Z</time>
      </trkpt>
      <trkpt lat="42.82289" lon="1.51579">
        <ele>1467</ele>
        <time>2018-10-01T12:48:34Z</time>
      </trkpt>
      <trkpt lat="42.82297" lon="1.51587">
        <ele>1465</ele>
        <time>2018-10-01T12:48:41Z</time>
      </trkpt>
      <trkpt lat="42.82307" lon="1.51591">
        <ele>1460</ele>
        <time>2018-10-01T12:48:48Z</time>
      </trkpt>
      <trkpt lat="42.82315" lon="1.51601">
        <ele>1462</ele>
        <time>2018-10-01T12:48:56Z</time>
      </trkpt>
      <trkpt lat="42.82315" lon="1.51615">
        <ele>1461</ele>
        <time>2018-10-01T12:49:02Z</time>
      </trkpt>
      <trkpt lat="42.82322" lon="1.51623">
        <ele>1461</ele>
        <time>2018-10-01T12:49:09Z</time>
      </trkpt>
      <trkpt lat="42.82328" lon="1.51638">
        <ele>1462</ele>
        <time>2018-10-01T12:49:26Z</time>
      </trkpt>
      <trkpt lat="42.82339" lon="1.51639">
        <ele>1460</ele>
        <time>2018-10-01T12:49:32Z</time>
      </trkpt>
      <trkpt lat="42.82349" lon="1.51645">
        <ele>1459</ele>
        <time>2018-10-01T12:49:38Z</time>
      </trkpt>
      <trkpt lat="42.82357" lon="1.51651">
        <ele>1455</ele>
        <time>2018-10-01T12:49:47Z</time>
      </trkpt>
      <trkpt lat="42.82363" lon="1.51661">
        <ele>1451</ele>
        <time>2018-10-01T12:49:55Z</time>
      </trkpt>
      <trkpt lat="42.82365" lon="1.51674">
        <ele>1450</ele>
        <time>2018-10-01T12:50:03Z</time>
      </trkpt>
      <trkpt lat="42.82375" lon="1.51679">
        <ele>1450</ele>
        <time>2018-10-01T12:50:08Z</time>
      </trkpt>
      <trkpt lat="42.82379" lon="1.5169">
        <ele>1448</ele>
        <time>2018-10-01T12:50:21Z</time>
      </trkpt>
      <trkpt lat="42.82387" lon="1.51696">
        <ele>1447</ele>
        <time>2018-10-01T12:50:32Z</time>
      </trkpt>
      <trkpt lat="42.82396" lon="1.51702">
        <ele>1442</ele>
        <time>2018-10-01T12:50:45Z</time>
      </trkpt>
      <trkpt lat="42.82405" lon="1.51703">
        <ele>1438</ele>
        <time>2018-10-01T12:50:53Z</time>
      </trkpt>
      <trkpt lat="42.82413" lon="1.5171">
        <ele>1439</ele>
        <time>2018-10-01T12:52:30Z</time>
      </trkpt>
      <trkpt lat="42.82416" lon="1.51722">
        <ele>1434</ele>
        <time>2018-10-01T12:52:49Z</time>
      </trkpt>
      <trkpt lat="42.82414" lon="1.51734">
        <ele>1431</ele>
        <time>2018-10-01T12:53:05Z</time>
      </trkpt>
      <trkpt lat="42.8242" lon="1.51744">
        <ele>1425</ele>
        <time>2018-10-01T12:53:24Z</time>
      </trkpt>
      <trkpt lat="42.82424" lon="1.51755">
        <ele>1422</ele>
        <time>2018-10-01T12:53:45Z</time>
      </trkpt>
      <trkpt lat="42.82432" lon="1.51761">
        <ele>1415</ele>
        <time>2018-10-01T12:53:59Z</time>
      </trkpt>
      <trkpt lat="42.82434" lon="1.51774">
        <ele>1416</ele>
        <time>2018-10-01T12:54:17Z</time>
      </trkpt>
      <trkpt lat="42.82439" lon="1.51785">
        <ele>1411</ele>
        <time>2018-10-01T12:54:36Z</time>
      </trkpt>
      <trkpt lat="42.82444" lon="1.51797">
        <ele>1403</ele>
        <time>2018-10-01T12:55:11Z</time>
      </trkpt>
      <trkpt lat="42.82449" lon="1.51807">
        <ele>1403</ele>
        <time>2018-10-01T12:55:31Z</time>
      </trkpt>
      <trkpt lat="42.82454" lon="1.51818">
        <ele>1402</ele>
        <time>2018-10-01T12:55:39Z</time>
      </trkpt>
      <trkpt lat="42.82455" lon="1.51832">
        <ele>1402</ele>
        <time>2018-10-01T12:55:51Z</time>
      </trkpt>
      <trkpt lat="42.82454" lon="1.51848">
        <ele>1401</ele>
        <time>2018-10-01T12:56:13Z</time>
      </trkpt>
      <trkpt lat="42.82451" lon="1.51859">
        <ele>1395</ele>
        <time>2018-10-01T12:56:29Z</time>
      </trkpt>
      <trkpt lat="42.82457" lon="1.51868">
        <ele>1387</ele>
        <time>2018-10-01T12:56:45Z</time>
      </trkpt>
      <trkpt lat="42.82459" lon="1.5188">
        <ele>1384</ele>
        <time>2018-10-01T12:57:01Z</time>
      </trkpt>
      <trkpt lat="42.82463" lon="1.51892">
        <ele>1380</ele>
        <time>2018-10-01T12:57:18Z</time>
      </trkpt>
      <trkpt lat="42.82466" lon="1.51903">
        <ele>1379</ele>
        <time>2018-10-01T12:57:33Z</time>
      </trkpt>
      <trkpt lat="42.8247" lon="1.51914">
        <ele>1371</ele>
        <time>2018-10-01T12:57:55Z</time>
      </trkpt>
      <trkpt lat="42.82471" lon="1.51927">
        <ele>1367</ele>
        <time>2018-10-01T12:58:03Z</time>
      </trkpt>
      <trkpt lat="42.82471" lon="1.5194">
        <ele>1365</ele>
        <time>2018-10-01T12:58:14Z</time>
      </trkpt>
      <trkpt lat="42.82478" lon="1.51949">
        <ele>1364</ele>
        <time>2018-10-01T12:58:28Z</time>
      </trkpt>
      <trkpt lat="42.82475" lon="1.51961">
        <ele>1363</ele>
        <time>2018-10-01T12:58:42Z</time>
      </trkpt>
      <trkpt lat="42.82482" lon="1.5197">
        <ele>1359</ele>
        <time>2018-10-01T12:58:53Z</time>
      </trkpt>
      <trkpt lat="42.82482" lon="1.51983">
        <ele>1359</ele>
        <time>2018-10-01T12:59:50Z</time>
      </trkpt>
      <trkpt lat="42.82488" lon="1.51992">
        <ele>1351</ele>
        <time>2018-10-01T13:00:04Z</time>
      </trkpt>
      <trkpt lat="42.82492" lon="1.52004">
        <ele>1350</ele>
        <time>2018-10-01T13:00:19Z</time>
      </trkpt>
      <trkpt lat="42.82495" lon="1.52017">
        <ele>1346</ele>
        <time>2018-10-01T13:02:21Z</time>
      </trkpt>
      <trkpt lat="42.82498" lon="1.52031">
        <ele>1341</ele>
        <time>2018-10-01T13:06:32Z</time>
      </trkpt>
      <trkpt lat="42.82498" lon="1.52045">
        <ele>1338</ele>
        <time>2018-10-01T13:06:38Z</time>
      </trkpt>
      <trkpt lat="42.82497" lon="1.52057">
        <ele>1336</ele>
        <time>2018-10-01T13:06:48Z</time>
      </trkpt>
      <trkpt lat="42.82502" lon="1.52069">
        <ele>1330</ele>
        <time>2018-10-01T13:06:55Z</time>
      </trkpt>
      <trkpt lat="42.82508" lon="1.52078">
        <ele>1328</ele>
        <time>2018-10-01T13:07:07Z</time>
      </trkpt>
      <trkpt lat="42.82509" lon="1.52091">
        <ele>1330</ele>
        <time>2018-10-01T13:07:18Z</time>
      </trkpt>
      <trkpt lat="42.82514" lon="1.52102">
        <ele>1330</ele>
        <time>2018-10-01T13:07:33Z</time>
      </trkpt>
      <trkpt lat="42.82517" lon="1.52114">
        <ele>1330</ele>
        <time>2018-10-01T13:08:10Z</time>
      </trkpt>
      <trkpt lat="42.82521" lon="1.52125">
        <ele>1325</ele>
        <time>2018-10-01T13:08:19Z</time>
      </trkpt>
      <trkpt lat="42.82527" lon="1.52135">
        <ele>1322</ele>
        <time>2018-10-01T13:08:25Z</time>
      </trkpt>
      <trkpt lat="42.82528" lon="1.52149">
        <ele>1323</ele>
        <time>2018-10-01T13:08:32Z</time>
      </trkpt>
      <trkpt lat="42.82533" lon="1.5216">
        <ele>1320</ele>
        <time>2018-10-01T13:08:46Z</time>
      </trkpt>
      <trkpt lat="42.82536" lon="1.52173">
        <ele>1319</ele>
        <time>2018-10-01T13:08:56Z</time>
      </trkpt>
      <trkpt lat="42.8254" lon="1.52185">
        <ele>1313</ele>
        <time>2018-10-01T13:09:18Z</time>
      </trkpt>
      <trkpt lat="42.82544" lon="1.52196">
        <ele>1309</ele>
        <time>2018-10-01T13:09:29Z</time>
      </trkpt>
      <trkpt lat="42.82548" lon="1.52207">
        <ele>1307</ele>
        <time>2018-10-01T13:09:40Z</time>
      </trkpt>
      <trkpt lat="42.82545" lon="1.5222">
        <ele>1307</ele>
        <time>2018-10-01T13:10:04Z</time>
      </trkpt>
      <trkpt lat="42.8255" lon="1.52231">
        <ele>1305</ele>
        <time>2018-10-01T13:10:11Z</time>
      </trkpt>
      <trkpt lat="42.8255" lon="1.52246">
        <ele>1304</ele>
        <time>2018-10-01T13:10:17Z</time>
      </trkpt>
      <trkpt lat="42.82553" lon="1.5226">
        <ele>1298</ele>
        <time>2018-10-01T13:10:26Z</time>
      </trkpt>
      <trkpt lat="42.82556" lon="1.52274">
        <ele>1297</ele>
        <time>2018-10-01T13:10:38Z</time>
      </trkpt>
      <trkpt lat="42.82557" lon="1.52287">
        <ele>1293</ele>
        <time>2018-10-01T13:10:48Z</time>
      </trkpt>
      <trkpt lat="42.82564" lon="1.52296">
        <ele>1293</ele>
        <time>2018-10-01T13:10:57Z</time>
      </trkpt>
      <trkpt lat="42.8257" lon="1.52307">
        <ele>1289</ele>
        <time>2018-10-01T13:11:12Z</time>
      </trkpt>
      <trkpt lat="42.82572" lon="1.5232">
        <ele>1289</ele>
        <time>2018-10-01T13:11:25Z</time>
      </trkpt>
      <trkpt lat="42.82576" lon="1.52331">
        <ele>1287</ele>
        <time>2018-10-01T13:11:37Z</time>
      </trkpt>
      <trkpt lat="42.82574" lon="1.52344">
        <ele>1283</ele>
        <time>2018-10-01T13:12:01Z</time>
      </trkpt>
      <trkpt lat="42.82581" lon="1.52353">
        <ele>1281</ele>
        <time>2018-10-01T13:12:12Z</time>
      </trkpt>
      <trkpt lat="42.8259" lon="1.52345">
        <ele>1279</ele>
        <time>2018-10-01T13:12:27Z</time>
      </trkpt>
      <trkpt lat="42.82595" lon="1.52335">
        <ele>1283</ele>
        <time>2018-10-01T13:13:29Z</time>
      </trkpt>
      <trkpt lat="42.82592" lon="1.52322">
        <ele>1281</ele>
        <time>2018-10-01T13:13:37Z</time>
      </trkpt>
      <trkpt lat="42.82588" lon="1.52311">
        <ele>1283</ele>
        <time>2018-10-01T13:13:42Z</time>
      </trkpt>
      <trkpt lat="42.82594" lon="1.52302">
        <ele>1286</ele>
        <time>2018-10-01T13:13:49Z</time>
      </trkpt>
      <trkpt lat="42.82593" lon="1.52289">
        <ele>1288</ele>
        <time>2018-10-01T13:13:55Z</time>
      </trkpt>
      <trkpt lat="42.82595" lon="1.52276">
        <ele>1289</ele>
        <time>2018-10-01T13:14:02Z</time>
      </trkpt>
      <trkpt lat="42.82597" lon="1.52262">
        <ele>1292</ele>
        <time>2018-10-01T13:14:10Z</time>
      </trkpt>
      <trkpt lat="42.82597" lon="1.52248">
        <ele>1291</ele>
        <time>2018-10-01T13:14:21Z</time>
      </trkpt>
      <trkpt lat="42.8259" lon="1.52234">
        <ele>1290</ele>
        <time>2018-10-01T13:14:27Z</time>
      </trkpt>
      <trkpt lat="42.82596" lon="1.52226">
        <ele>1294</ele>
        <time>2018-10-01T13:14:34Z</time>
      </trkpt>
      <trkpt lat="42.82593" lon="1.52213">
        <ele>1293</ele>
        <time>2018-10-01T13:14:41Z</time>
      </trkpt>
      <trkpt lat="42.82585" lon="1.522">
        <ele>1292</ele>
        <time>2018-10-01T13:14:46Z</time>
      </trkpt>
      <trkpt lat="42.82594" lon="1.52193">
        <ele>1289</ele>
        <time>2018-10-01T13:14:52Z</time>
      </trkpt>
      <trkpt lat="42.82593" lon="1.5218">
        <ele>1288</ele>
        <time>2018-10-01T13:14:59Z</time>
      </trkpt>
      <trkpt lat="42.82604" lon="1.52171">
        <ele>1291</ele>
        <time>2018-10-01T13:15:04Z</time>
      </trkpt>
      <trkpt lat="42.82606" lon="1.52159">
        <ele>1292</ele>
        <time>2018-10-01T13:15:12Z</time>
      </trkpt>
      <trkpt lat="42.82604" lon="1.52146">
        <ele>1289</ele>
        <time>2018-10-01T13:15:21Z</time>
      </trkpt>
      <trkpt lat="42.826" lon="1.52134">
        <ele>1289</ele>
        <time>2018-10-01T13:15:27Z</time>
      </trkpt>
      <trkpt lat="42.82599" lon="1.52121">
        <ele>1287</ele>
        <time>2018-10-01T13:15:33Z</time>
      </trkpt>
      <trkpt lat="42.82592" lon="1.52113">
        <ele>1287</ele>
        <time>2018-10-01T13:15:36Z</time>
      </trkpt>
      <trkpt lat="42.82603" lon="1.52104">
        <ele>1290</ele>
        <time>2018-10-01T13:15:41Z</time>
      </trkpt>
      <trkpt lat="42.82612" lon="1.52096">
        <ele>1287</ele>
        <time>2018-10-01T13:15:47Z</time>
      </trkpt>
      <trkpt lat="42.82607" lon="1.52084">
        <ele>1287</ele>
        <time>2018-10-01T13:15:54Z</time>
      </trkpt>
      <trkpt lat="42.82608" lon="1.5207">
        <ele>1284</ele>
        <time>2018-10-01T13:16:04Z</time>
      </trkpt>
      <trkpt lat="42.82617" lon="1.52064">
        <ele>1282</ele>
        <time>2018-10-01T13:16:11Z</time>
      </trkpt>
      <trkpt lat="42.82626" lon="1.52059">
        <ele>1282</ele>
        <time>2018-10-01T13:16:19Z</time>
      </trkpt>
      <trkpt lat="42.82636" lon="1.52061">
        <ele>1280</ele>
        <time>2018-10-01T13:16:26Z</time>
      </trkpt>
      <trkpt lat="42.82645" lon="1.52066">
        <ele>1279</ele>
        <time>2018-10-01T13:16:35Z</time>
      </trkpt>
      <trkpt lat="42.82654" lon="1.52073">
        <ele>1278</ele>
        <time>2018-10-01T13:16:43Z</time>
      </trkpt>
      <trkpt lat="42.82661" lon="1.52083">
        <ele>1280</ele>
        <time>2018-10-01T13:16:51Z</time>
      </trkpt>
      <trkpt lat="42.82668" lon="1.52093">
        <ele>1285</ele>
        <time>2018-10-01T13:16:58Z</time>
      </trkpt>
      <trkpt lat="42.82678" lon="1.521">
        <ele>1285</ele>
        <time>2018-10-01T13:17:05Z</time>
      </trkpt>
      <trkpt lat="42.82687" lon="1.52101">
        <ele>1284</ele>
        <time>2018-10-01T13:17:12Z</time>
      </trkpt>
      <trkpt lat="42.82696" lon="1.52105">
        <ele>1284</ele>
        <time>2018-10-01T13:17:19Z</time>
      </trkpt>
      <trkpt lat="42.82706" lon="1.52109">
        <ele>1283</ele>
        <time>2018-10-01T13:17:27Z</time>
      </trkpt>
      <trkpt lat="42.82714" lon="1.52114">
        <ele>1279</ele>
        <time>2018-10-01T13:17:35Z</time>
      </trkpt>
      <trkpt lat="42.82725" lon="1.52114">
        <ele>1278</ele>
        <time>2018-10-01T13:17:41Z</time>
      </trkpt>
      <trkpt lat="42.82734" lon="1.52117">
        <ele>1275</ele>
        <time>2018-10-01T13:17:47Z</time>
      </trkpt>
      <trkpt lat="42.82744" lon="1.52121">
        <ele>1275</ele>
        <time>2018-10-01T13:17:57Z</time>
      </trkpt>
      <trkpt lat="42.82754" lon="1.52121">
        <ele>1274</ele>
        <time>2018-10-01T13:18:20Z</time>
      </trkpt>
      <trkpt lat="42.82765" lon="1.52123">
        <ele>1274</ele>
        <time>2018-10-01T13:18:25Z</time>
      </trkpt>
      <trkpt lat="42.82775" lon="1.52119">
        <ele>1271</ele>
        <time>2018-10-01T13:18:32Z</time>
      </trkpt>
      <trkpt lat="42.82784" lon="1.52123">
        <ele>1270</ele>
        <time>2018-10-01T13:20:04Z</time>
      </trkpt>
      <trkpt lat="42.82775" lon="1.52122">
        <ele>1273</ele>
        <time>2018-10-01T13:21:28Z</time>
      </trkpt>
      <trkpt lat="42.82766" lon="1.52125">
        <ele>1277</ele>
        <time>2018-10-01T13:21:37Z</time>
      </trkpt>
      <trkpt lat="42.82757" lon="1.52129">
        <ele>1276</ele>
        <time>2018-10-01T13:21:46Z</time>
      </trkpt>
      <trkpt lat="42.82748" lon="1.52131">
        <ele>1277</ele>
        <time>2018-10-01T13:21:54Z</time>
      </trkpt>
      <trkpt lat="42.82738" lon="1.5213">
        <ele>1275</ele>
        <time>2018-10-01T13:22:01Z</time>
      </trkpt>
      <trkpt lat="42.82727" lon="1.52134">
        <ele>1280</ele>
        <time>2018-10-01T13:22:08Z</time>
      </trkpt>
      <trkpt lat="42.82718" lon="1.52137">
        <ele>1278</ele>
        <time>2018-10-01T13:22:15Z</time>
      </trkpt>
      <trkpt lat="42.82709" lon="1.52141">
        <ele>1275</ele>
        <time>2018-10-01T13:22:24Z</time>
      </trkpt>
      <trkpt lat="42.82707" lon="1.52157">
        <ele>1266</ele>
        <time>2018-10-01T13:23:22Z</time>
      </trkpt>
      <trkpt lat="42.82712" lon="1.52168">
        <ele>1265</ele>
        <time>2018-10-01T13:26:46Z</time>
      </trkpt>
      <trkpt lat="42.82718" lon="1.52176">
        <ele>1266</ele>
        <time>2018-10-01T13:27:58Z</time>
      </trkpt>
      <trkpt lat="42.8272" lon="1.5219">
        <ele>1257</ele>
        <time>2018-10-01T13:29:38Z</time>
      </trkpt>
      <trkpt lat="42.82724" lon="1.52201">
        <ele>1247</ele>
        <time>2018-10-01T13:30:04Z</time>
      </trkpt>
      <trkpt lat="42.82731" lon="1.52214">
        <ele>1246</ele>
        <time>2018-10-01T13:30:34Z</time>
      </trkpt>
      <trkpt lat="42.82733" lon="1.52226">
        <ele>1250</ele>
        <time>2018-10-01T13:32:01Z</time>
      </trkpt>
      <trkpt lat="42.82744" lon="1.52238">
        <ele>1248</ele>
        <time>2018-10-01T13:32:28Z</time>
      </trkpt>
      <trkpt lat="42.82751" lon="1.52246">
        <ele>1242</ele>
        <time>2018-10-01T13:32:31Z</time>
      </trkpt>
      <trkpt lat="42.82757" lon="1.52256">
        <ele>1242</ele>
        <time>2018-10-01T13:32:40Z</time>
      </trkpt>
      <trkpt lat="42.82765" lon="1.52262">
        <ele>1237</ele>
        <time>2018-10-01T13:32:50Z</time>
      </trkpt>
      <trkpt lat="42.82774" lon="1.52274">
        <ele>1238</ele>
        <time>2018-10-01T13:33:13Z</time>
      </trkpt>
      <trkpt lat="42.82784" lon="1.52278">
        <ele>1237</ele>
        <time>2018-10-01T13:33:27Z</time>
      </trkpt>
      <trkpt lat="42.82794" lon="1.52276">
        <ele>1235</ele>
        <time>2018-10-01T13:33:37Z</time>
      </trkpt>
      <trkpt lat="42.82804" lon="1.52277">
        <ele>1232</ele>
        <time>2018-10-01T13:33:45Z</time>
      </trkpt>
      <trkpt lat="42.82811" lon="1.52269">
        <ele>1235</ele>
        <time>2018-10-01T13:34:01Z</time>
      </trkpt>
      <trkpt lat="42.82819" lon="1.52262">
        <ele>1236</ele>
        <time>2018-10-01T13:34:12Z</time>
      </trkpt>
      <trkpt lat="42.82828" lon="1.52259">
        <ele>1237</ele>
        <time>2018-10-01T13:34:24Z</time>
      </trkpt>
      <trkpt lat="42.82835" lon="1.52268">
        <ele>1236</ele>
        <time>2018-10-01T13:34:33Z</time>
      </trkpt>
      <trkpt lat="42.82828" lon="1.52279">
        <ele>1234</ele>
        <time>2018-10-01T13:35:22Z</time>
      </trkpt>
      <trkpt lat="42.82823" lon="1.52289">
        <ele>1231</ele>
        <time>2018-10-01T13:35:36Z</time>
      </trkpt>
      <trkpt lat="42.82814" lon="1.52295">
        <ele>1232</ele>
        <time>2018-10-01T13:35:46Z</time>
      </trkpt>
      <trkpt lat="42.82811" lon="1.52308">
        <ele>1230</ele>
        <time>2018-10-01T13:35:59Z</time>
      </trkpt>
      <trkpt lat="42.82805" lon="1.52319">
        <ele>1229</ele>
        <time>2018-10-01T13:36:15Z</time>
      </trkpt>
      <trkpt lat="42.828" lon="1.5233">
        <ele>1221</ele>
        <time>2018-10-01T13:36:29Z</time>
      </trkpt>
      <trkpt lat="42.82794" lon="1.52341">
        <ele>1221</ele>
        <time>2018-10-01T13:36:46Z</time>
      </trkpt>
      <trkpt lat="42.82789" lon="1.52354">
        <ele>1219</ele>
        <time>2018-10-01T13:36:59Z</time>
      </trkpt>
      <trkpt lat="42.82786" lon="1.52367">
        <ele>1221</ele>
        <time>2018-10-01T13:37:09Z</time>
      </trkpt>
      <trkpt lat="42.82781" lon="1.52377">
        <ele>1218</ele>
        <time>2018-10-01T13:37:18Z</time>
      </trkpt>
      <trkpt lat="42.82775" lon="1.52389">
        <ele>1215</ele>
        <time>2018-10-01T13:37:25Z</time>
      </trkpt>
      <trkpt lat="42.82769" lon="1.52401">
        <ele>1214</ele>
        <time>2018-10-01T13:37:35Z</time>
      </trkpt>
      <trkpt lat="42.82765" lon="1.52412">
        <ele>1214</ele>
        <time>2018-10-01T13:37:47Z</time>
      </trkpt>
      <trkpt lat="42.82759" lon="1.52421">
        <ele>1210</ele>
        <time>2018-10-01T13:37:56Z</time>
      </trkpt>
      <trkpt lat="42.82749" lon="1.52428">
        <ele>1207</ele>
        <time>2018-10-01T13:38:07Z</time>
      </trkpt>
      <trkpt lat="42.82743" lon="1.52439">
        <ele>1205</ele>
        <time>2018-10-01T13:38:16Z</time>
      </trkpt>
      <trkpt lat="42.82738" lon="1.5245">
        <ele>1207</ele>
        <time>2018-10-01T13:38:31Z</time>
      </trkpt>
      <trkpt lat="42.82738" lon="1.52463">
        <ele>1207</ele>
        <time>2018-10-01T13:38:40Z</time>
      </trkpt>
      <trkpt lat="42.82733" lon="1.52474">
        <ele>1201</ele>
        <time>2018-10-01T13:38:53Z</time>
      </trkpt>
      <trkpt lat="42.82735" lon="1.52486">
        <ele>1200</ele>
        <time>2018-10-01T13:39:03Z</time>
      </trkpt>
      <trkpt lat="42.82734" lon="1.52499">
        <ele>1201</ele>
        <time>2018-10-01T13:39:49Z</time>
      </trkpt>
      <trkpt lat="42.82736" lon="1.52513">
        <ele>1199</ele>
        <time>2018-10-01T13:39:54Z</time>
      </trkpt>
      <trkpt lat="42.82738" lon="1.52526">
        <ele>1195</ele>
        <time>2018-10-01T13:40:02Z</time>
      </trkpt>
      <trkpt lat="42.8274" lon="1.5254">
        <ele>1197</ele>
        <time>2018-10-01T13:40:12Z</time>
      </trkpt>
      <trkpt lat="42.82742" lon="1.52553">
        <ele>1197</ele>
        <time>2018-10-01T13:40:19Z</time>
      </trkpt>
      <trkpt lat="42.82744" lon="1.52567">
        <ele>1193</ele>
        <time>2018-10-01T13:40:33Z</time>
      </trkpt>
      <trkpt lat="42.82743" lon="1.5258">
        <ele>1189</ele>
        <time>2018-10-01T13:40:41Z</time>
      </trkpt>
      <trkpt lat="42.82742" lon="1.52593">
        <ele>1188</ele>
        <time>2018-10-01T13:41:09Z</time>
      </trkpt>
      <trkpt lat="42.82743" lon="1.52607">
        <ele>1192</ele>
        <time>2018-10-01T13:41:17Z</time>
      </trkpt>
      <trkpt lat="42.82749" lon="1.52617">
        <ele>1189</ele>
        <time>2018-10-01T13:41:24Z</time>
      </trkpt>
      <trkpt lat="42.82754" lon="1.52635">
        <ele>1183</ele>
        <time>2018-10-01T13:41:48Z</time>
      </trkpt>
      <trkpt lat="42.82755" lon="1.52648">
        <ele>1180</ele>
        <time>2018-10-01T13:41:52Z</time>
      </trkpt>
      <trkpt lat="42.82758" lon="1.52662">
        <ele>1178</ele>
        <time>2018-10-01T13:41:58Z</time>
      </trkpt>
      <trkpt lat="42.8276" lon="1.52675">
        <ele>1176</ele>
        <time>2018-10-01T13:42:08Z</time>
      </trkpt>
      <trkpt lat="42.82764" lon="1.52686">
        <ele>1173</ele>
        <time>2018-10-01T13:42:20Z</time>
      </trkpt>
      <trkpt lat="42.82766" lon="1.52699">
        <ele>1172</ele>
        <time>2018-10-01T13:42:33Z</time>
      </trkpt>
      <trkpt lat="42.82771" lon="1.52712">
        <ele>1171</ele>
        <time>2018-10-01T13:42:41Z</time>
      </trkpt>
      <trkpt lat="42.82775" lon="1.52725">
        <ele>1170</ele>
        <time>2018-10-01T13:42:53Z</time>
      </trkpt>
      <trkpt lat="42.82779" lon="1.52735">
        <ele>1167</ele>
        <time>2018-10-01T13:43:08Z</time>
      </trkpt>
      <trkpt lat="42.82783" lon="1.52749">
        <ele>1167</ele>
        <time>2018-10-01T13:43:19Z</time>
      </trkpt>
      <trkpt lat="42.82785" lon="1.52762">
        <ele>1163</ele>
        <time>2018-10-01T13:43:28Z</time>
      </trkpt>
      <trkpt lat="42.82789" lon="1.52775">
        <ele>1157</ele>
        <time>2018-10-01T13:44:17Z</time>
      </trkpt>
      <trkpt lat="42.82792" lon="1.52788">
        <ele>1157</ele>
        <time>2018-10-01T13:44:26Z</time>
      </trkpt>
      <trkpt lat="42.82798" lon="1.52798">
        <ele>1155</ele>
        <time>2018-10-01T13:44:35Z</time>
      </trkpt>
      <trkpt lat="42.82798" lon="1.5281">
        <ele>1158</ele>
        <time>2018-10-01T13:44:45Z</time>
      </trkpt>
      <trkpt lat="42.82799" lon="1.52823">
        <ele>1157</ele>
        <time>2018-10-01T13:44:54Z</time>
      </trkpt>
      <trkpt lat="42.82798" lon="1.52836">
        <ele>1151</ele>
        <time>2018-10-01T13:47:22Z</time>
      </trkpt>
      <trkpt lat="42.8279" lon="1.52841">
        <ele>1149</ele>
        <time>2018-10-01T13:47:30Z</time>
      </trkpt>
      <trkpt lat="42.82781" lon="1.52844">
        <ele>1150</ele>
        <time>2018-10-01T13:48:02Z</time>
      </trkpt>
      <trkpt lat="42.8277" lon="1.52843">
        <ele>1151</ele>
        <time>2018-10-01T13:48:07Z</time>
      </trkpt>
      <trkpt lat="42.8276" lon="1.52845">
        <ele>1153</ele>
        <time>2018-10-01T13:48:14Z</time>
      </trkpt>
      <trkpt lat="42.82752" lon="1.52839">
        <ele>1150</ele>
        <time>2018-10-01T13:48:24Z</time>
      </trkpt>
      <trkpt lat="42.82743" lon="1.52837">
        <ele>1150</ele>
        <time>2018-10-01T13:48:28Z</time>
      </trkpt>
      <trkpt lat="42.82735" lon="1.52847">
        <ele>1151</ele>
        <time>2018-10-01T13:48:31Z</time>
      </trkpt>
      <trkpt lat="42.82729" lon="1.52858">
        <ele>1154</ele>
        <time>2018-10-01T13:48:40Z</time>
      </trkpt>
      <trkpt lat="42.82739" lon="1.52861">
        <ele>1149</ele>
        <time>2018-10-01T13:48:57Z</time>
      </trkpt>
      <trkpt lat="42.82747" lon="1.52866">
        <ele>1138</ele>
        <time>2018-10-01T13:49:10Z</time>
      </trkpt>
      <trkpt lat="42.82755" lon="1.52874">
        <ele>1141</ele>
        <time>2018-10-01T13:49:43Z</time>
      </trkpt>
      <trkpt lat="42.82763" lon="1.52881">
        <ele>1141</ele>
        <time>2018-10-01T13:49:50Z</time>
      </trkpt>
      <trkpt lat="42.82772" lon="1.52888">
        <ele>1139</ele>
        <time>2018-10-01T13:49:57Z</time>
      </trkpt>
      <trkpt lat="42.82784" lon="1.5289">
        <ele>1140</ele>
        <time>2018-10-01T13:50:06Z</time>
      </trkpt>
      <trkpt lat="42.82793" lon="1.52895">
        <ele>1132</ele>
        <time>2018-10-01T13:50:14Z</time>
      </trkpt>
      <trkpt lat="42.82801" lon="1.52902">
        <ele>1131</ele>
        <time>2018-10-01T13:50:21Z</time>
      </trkpt>
      <trkpt lat="42.82809" lon="1.52908">
        <ele>1131</ele>
        <time>2018-10-01T13:50:28Z</time>
      </trkpt>
      <trkpt lat="42.82819" lon="1.52893">
        <ele>1129</ele>
        <time>2018-10-01T13:50:33Z</time>
      </trkpt>
      <trkpt lat="42.82816" lon="1.52906">
        <ele>1128</ele>
        <time>2018-10-01T13:50:35Z</time>
      </trkpt>
      <trkpt lat="42.82806" lon="1.52904">
        <ele>1130</ele>
        <time>2018-10-01T13:50:45Z</time>
      </trkpt>
      <trkpt lat="42.82815" lon="1.5291">
        <ele>1125</ele>
        <time>2018-10-01T13:51:16Z</time>
      </trkpt>
      <trkpt lat="42.82818" lon="1.52922">
        <ele>1126</ele>
        <time>2018-10-01T13:51:20Z</time>
      </trkpt>
      <trkpt lat="42.8283" lon="1.52919">
        <ele>1121</ele>
        <time>2018-10-01T13:52:02Z</time>
      </trkpt>
      <trkpt lat="42.8284" lon="1.52922">
        <ele>1113</ele>
        <time>2018-10-01T13:52:04Z</time>
      </trkpt>
      <trkpt lat="42.82851" lon="1.52928">
        <ele>1109</ele>
        <time>2018-10-01T13:52:07Z</time>
      </trkpt>
      <trkpt lat="42.8286" lon="1.52933">
        <ele>1106</ele>
        <time>2018-10-01T13:52:16Z</time>
      </trkpt>
      <trkpt lat="42.82866" lon="1.52942">
        <ele>1102</ele>
        <time>2018-10-01T13:52:29Z</time>
      </trkpt>
      <trkpt lat="42.82874" lon="1.5295">
        <ele>1104</ele>
        <time>2018-10-01T13:52:35Z</time>
      </trkpt>
      <trkpt lat="42.82881" lon="1.52959">
        <ele>1106</ele>
        <time>2018-10-01T13:52:39Z</time>
      </trkpt>
      <trkpt lat="42.8289" lon="1.52952">
        <ele>1104</ele>
        <time>2018-10-01T13:53:16Z</time>
      </trkpt>
      <trkpt lat="42.82901" lon="1.5295">
        <ele>1103</ele>
        <time>2018-10-01T13:53:22Z</time>
      </trkpt>
      <trkpt lat="42.82913" lon="1.52952">
        <ele>1092</ele>
        <time>2018-10-01T13:53:33Z</time>
      </trkpt>
      <trkpt lat="42.82921" lon="1.52945">
        <ele>1086</ele>
        <time>2018-10-01T13:54:17Z</time>
      </trkpt>
      <trkpt lat="42.82932" lon="1.52942">
        <ele>1086</ele>
        <time>2018-10-01T13:54:20Z</time>
      </trkpt>
      <trkpt lat="42.82938" lon="1.52928">
        <ele>1079</ele>
        <time>2018-10-01T13:54:42Z</time>
      </trkpt>
      <trkpt lat="42.82938" lon="1.52942">
        <ele>1078</ele>
        <time>2018-10-01T13:55:20Z</time>
      </trkpt>
      <trkpt lat="42.82943" lon="1.52954">
        <ele>1074</ele>
        <time>2018-10-01T13:55:30Z</time>
      </trkpt>
      <trkpt lat="42.8294" lon="1.52966">
        <ele>1077</ele>
        <time>2018-10-01T13:55:39Z</time>
      </trkpt>
      <trkpt lat="42.82934" lon="1.52976">
        <ele>1073</ele>
        <time>2018-10-01T13:55:48Z</time>
      </trkpt>
      <trkpt lat="42.82932" lon="1.52989">
        <ele>1070</ele>
        <time>2018-10-01T13:55:58Z</time>
      </trkpt>
      <trkpt lat="42.82924" lon="1.52996">
        <ele>1071</ele>
        <time>2018-10-01T13:56:03Z</time>
      </trkpt>
      <trkpt lat="42.82916" lon="1.53002">
        <ele>1074</ele>
        <time>2018-10-01T13:56:10Z</time>
      </trkpt>
      <trkpt lat="42.82909" lon="1.53011">
        <ele>1073</ele>
        <time>2018-10-01T13:56:19Z</time>
      </trkpt>
      <trkpt lat="42.82904" lon="1.53023">
        <ele>1068</ele>
        <time>2018-10-01T13:56:27Z</time>
      </trkpt>
      <trkpt lat="42.82896" lon="1.53029">
        <ele>1068</ele>
        <time>2018-10-01T13:56:34Z</time>
      </trkpt>
      <trkpt lat="42.82887" lon="1.5304">
        <ele>1071</ele>
        <time>2018-10-01T13:56:39Z</time>
      </trkpt>
      <trkpt lat="42.82879" lon="1.53048">
        <ele>1067</ele>
        <time>2018-10-01T13:56:52Z</time>
      </trkpt>
      <trkpt lat="42.82871" lon="1.53054">
        <ele>1068</ele>
        <time>2018-10-01T13:56:58Z</time>
      </trkpt>
      <trkpt lat="42.82864" lon="1.53062">
        <ele>1069</ele>
        <time>2018-10-01T13:57:06Z</time>
      </trkpt>
      <trkpt lat="42.82857" lon="1.53072">
        <ele>1068</ele>
        <time>2018-10-01T13:57:17Z</time>
      </trkpt>
      <trkpt lat="42.8285" lon="1.53084">
        <ele>1066</ele>
        <time>2018-10-01T13:57:47Z</time>
      </trkpt>
      <trkpt lat="42.82839" lon="1.53087">
        <ele>1065</ele>
        <time>2018-10-01T13:57:53Z</time>
      </trkpt>
      <trkpt lat="42.8283" lon="1.53091">
        <ele>1063</ele>
        <time>2018-10-01T13:58:00Z</time>
      </trkpt>
      <trkpt lat="42.82841" lon="1.53087">
        <ele>1063</ele>
        <time>2018-10-01T14:02:12Z</time>
      </trkpt>
      <trkpt lat="42.82851" lon="1.53083">
        <ele>1058</ele>
        <time>2018-10-01T14:02:19Z</time>
      </trkpt>
      <trkpt lat="42.82861" lon="1.53083">
        <ele>1054</ele>
        <time>2018-10-01T14:02:26Z</time>
      </trkpt>
      <trkpt lat="42.82871" lon="1.53085">
        <ele>1053</ele>
        <time>2018-10-01T14:02:32Z</time>
      </trkpt>
      <trkpt lat="42.82879" lon="1.53089">
        <ele>1054</ele>
        <time>2018-10-01T14:02:41Z</time>
      </trkpt>
      <trkpt lat="42.82889" lon="1.53087">
        <ele>1051</ele>
        <time>2018-10-01T14:02:56Z</time>
      </trkpt>
      <trkpt lat="42.82898" lon="1.53092">
        <ele>1054</ele>
        <time>2018-10-01T14:03:05Z</time>
      </trkpt>
      <trkpt lat="42.82905" lon="1.531">
        <ele>1055</ele>
        <time>2018-10-01T14:03:16Z</time>
      </trkpt>
      <trkpt lat="42.82915" lon="1.53093">
        <ele>1052</ele>
        <time>2018-10-01T14:03:33Z</time>
      </trkpt>
      <trkpt lat="42.82925" lon="1.53094">
        <ele>1047</ele>
        <time>2018-10-01T14:03:43Z</time>
      </trkpt>
      <trkpt lat="42.82934" lon="1.5309">
        <ele>1044</ele>
        <time>2018-10-01T14:03:55Z</time>
      </trkpt>
      <trkpt lat="42.82943" lon="1.53094">
        <ele>1035</ele>
        <time>2018-10-01T14:04:08Z</time>
      </trkpt>
      <trkpt lat="42.82951" lon="1.53084">
        <ele>1030</ele>
        <time>2018-10-01T14:04:20Z</time>
      </trkpt>
      <trkpt lat="42.82961" lon="1.53085">
        <ele>1031</ele>
        <time>2018-10-01T14:04:26Z</time>
      </trkpt>
      <trkpt lat="42.8297" lon="1.53091">
        <ele>1030</ele>
        <time>2018-10-01T14:04:34Z</time>
      </trkpt>
      <trkpt lat="42.82969" lon="1.53105">
        <ele>1033</ele>
        <time>2018-10-01T14:04:42Z</time>
      </trkpt>
      <trkpt lat="42.82973" lon="1.53092">
        <ele>1032</ele>
        <time>2018-10-01T14:04:47Z</time>
      </trkpt>
      <trkpt lat="42.82983" lon="1.53089">
        <ele>1034</ele>
        <time>2018-10-01T14:05:29Z</time>
      </trkpt>
      <trkpt lat="42.82992" lon="1.53083">
        <ele>1032</ele>
        <time>2018-10-01T14:05:32Z</time>
      </trkpt>
      <trkpt lat="42.83007" lon="1.53082">
        <ele>1025</ele>
        <time>2018-10-01T14:05:58Z</time>
      </trkpt>
      <trkpt lat="42.83017" lon="1.53088">
        <ele>1017</ele>
        <time>2018-10-01T14:06:19Z</time>
      </trkpt>
      <trkpt lat="42.83027" lon="1.53088">
        <ele>1017</ele>
        <time>2018-10-01T14:06:48Z</time>
      </trkpt>
      <trkpt lat="42.83038" lon="1.53092">
        <ele>1015</ele>
        <time>2018-10-01T14:06:54Z</time>
      </trkpt>
      <trkpt lat="42.83047" lon="1.53091">
        <ele>1006</ele>
        <time>2018-10-01T14:07:20Z</time>
      </trkpt>
      <trkpt lat="42.83059" lon="1.53089">
        <ele>1004</ele>
        <time>2018-10-01T14:07:36Z</time>
      </trkpt>
      <trkpt lat="42.83069" lon="1.53089">
        <ele>1005</ele>
        <time>2018-10-01T14:07:48Z</time>
      </trkpt>
      <trkpt lat="42.8308" lon="1.53085">
        <ele>1004</ele>
        <time>2018-10-01T14:08:20Z</time>
      </trkpt>
      <trkpt lat="42.83088" lon="1.53093">
        <ele>1002</ele>
        <time>2018-10-01T14:08:23Z</time>
      </trkpt>
      <trkpt lat="42.83097" lon="1.53086">
        <ele>1001</ele>
        <time>2018-10-01T14:08:30Z</time>
      </trkpt>
      <trkpt lat="42.83107" lon="1.5308">
        <ele>994</ele>
        <time>2018-10-01T14:08:44Z</time>
      </trkpt>
      <trkpt lat="42.83107" lon="1.53095">
        <ele>993</ele>
        <time>2018-10-01T14:09:19Z</time>
      </trkpt>
      <trkpt lat="42.83118" lon="1.53094">
        <ele>985</ele>
        <time>2018-10-01T14:09:24Z</time>
      </trkpt>
      <trkpt lat="42.83127" lon="1.53097">
        <ele>985</ele>
        <time>2018-10-01T14:09:32Z</time>
      </trkpt>
      <trkpt lat="42.83137" lon="1.53105">
        <ele>986</ele>
        <time>2018-10-01T14:10:04Z</time>
      </trkpt>
      <trkpt lat="42.83152" lon="1.53105">
        <ele>987</ele>
        <time>2018-10-01T14:10:16Z</time>
      </trkpt>
      <trkpt lat="42.83163" lon="1.53107">
        <ele>985</ele>
        <time>2018-10-01T14:10:20Z</time>
      </trkpt>
      <trkpt lat="42.83175" lon="1.53106">
        <ele>984</ele>
        <time>2018-10-01T14:10:27Z</time>
      </trkpt>
      <trkpt lat="42.83184" lon="1.53106">
        <ele>985</ele>
        <time>2018-10-01T14:10:33Z</time>
      </trkpt>
      <trkpt lat="42.83194" lon="1.53101">
        <ele>979</ele>
        <time>2018-10-01T14:10:41Z</time>
      </trkpt>
      <trkpt lat="42.83204" lon="1.53107">
        <ele>977</ele>
        <time>2018-10-01T14:11:27Z</time>
      </trkpt>
      <trkpt lat="42.83211" lon="1.53116">
        <ele>971</ele>
        <time>2018-10-01T14:11:35Z</time>
      </trkpt>
      <trkpt lat="42.8322" lon="1.53124">
        <ele>967</ele>
        <time>2018-10-01T14:12:31Z</time>
      </trkpt>
      <trkpt lat="42.83221" lon="1.53139">
        <ele>964</ele>
        <time>2018-10-01T14:12:37Z</time>
      </trkpt>
      <trkpt lat="42.83229" lon="1.53148">
        <ele>969</ele>
        <time>2018-10-01T14:12:46Z</time>
      </trkpt>
      <trkpt lat="42.83238" lon="1.53153">
        <ele>963</ele>
        <time>2018-10-01T14:12:59Z</time>
      </trkpt>
      <trkpt lat="42.83246" lon="1.53162">
        <ele>957</ele>
        <time>2018-10-01T14:13:56Z</time>
      </trkpt>
      <trkpt lat="42.83254" lon="1.53167">
        <ele>954</ele>
        <time>2018-10-01T14:14:06Z</time>
      </trkpt>
      <trkpt lat="42.83264" lon="1.53168">
        <ele>953</ele>
        <time>2018-10-01T14:14:50Z</time>
      </trkpt>
      <trkpt lat="42.83268" lon="1.53179">
        <ele>954</ele>
        <time>2018-10-01T14:14:56Z</time>
      </trkpt>
      <trkpt lat="42.83273" lon="1.5319">
        <ele>953</ele>
        <time>2018-10-01T14:15:09Z</time>
      </trkpt>
      <trkpt lat="42.83282" lon="1.53186">
        <ele>949</ele>
        <time>2018-10-01T14:15:14Z</time>
      </trkpt>
      <trkpt lat="42.83291" lon="1.53192">
        <ele>947</ele>
        <time>2018-10-01T14:15:24Z</time>
      </trkpt>
      <trkpt lat="42.83301" lon="1.53195">
        <ele>945</ele>
        <time>2018-10-01T14:15:54Z</time>
      </trkpt>
      <trkpt lat="42.8331" lon="1.532">
        <ele>938</ele>
        <time>2018-10-01T14:15:59Z</time>
      </trkpt>
      <trkpt lat="42.83319" lon="1.53195">
        <ele>938</ele>
        <time>2018-10-01T14:16:05Z</time>
      </trkpt>
      <trkpt lat="42.83329" lon="1.53196">
        <ele>935</ele>
        <time>2018-10-01T14:16:09Z</time>
      </trkpt>
      <trkpt lat="42.8332" lon="1.53199">
        <ele>938</ele>
        <time>2018-10-01T14:16:11Z</time>
      </trkpt>
      <trkpt lat="42.83329" lon="1.53202">
        <ele>938</ele>
        <time>2018-10-01T14:16:16Z</time>
      </trkpt>
      <trkpt lat="42.83336" lon="1.53211">
        <ele>936</ele>
        <time>2018-10-01T14:16:39Z</time>
      </trkpt>
      <trkpt lat="42.83344" lon="1.53207">
        <ele>937</ele>
        <time>2018-10-01T14:16:47Z</time>
      </trkpt>
      <trkpt lat="42.83352" lon="1.53215">
        <ele>933</ele>
        <time>2018-10-01T14:17:56Z</time>
      </trkpt>
      <trkpt lat="42.8336" lon="1.5322">
        <ele>935</ele>
        <time>2018-10-01T14:18:03Z</time>
      </trkpt>
      <trkpt lat="42.8337" lon="1.53226">
        <ele>929</ele>
        <time>2018-10-01T14:18:11Z</time>
      </trkpt>
      <trkpt lat="42.83368" lon="1.53239">
        <ele>928</ele>
        <time>2018-10-01T14:18:24Z</time>
      </trkpt>
      <trkpt lat="42.8338" lon="1.53248">
        <ele>930</ele>
        <time>2018-10-01T14:19:13Z</time>
      </trkpt>
      <trkpt lat="42.83389" lon="1.53245">
        <ele>926</ele>
        <time>2018-10-01T14:19:17Z</time>
      </trkpt>
      <trkpt lat="42.83399" lon="1.53247">
        <ele>923</ele>
        <time>2018-10-01T14:19:30Z</time>
      </trkpt>
      <trkpt lat="42.83407" lon="1.53256">
        <ele>925</ele>
        <time>2018-10-01T14:19:44Z</time>
      </trkpt>
      <trkpt lat="42.83412" lon="1.53267">
        <ele>922</ele>
        <time>2018-10-01T14:19:49Z</time>
      </trkpt>
      <trkpt lat="42.83424" lon="1.53272">
        <ele>926</ele>
        <time>2018-10-01T14:20:02Z</time>
      </trkpt>
      <trkpt lat="42.83433" lon="1.53277">
        <ele>921</ele>
        <time>2018-10-01T14:20:48Z</time>
      </trkpt>
      <trkpt lat="42.83443" lon="1.53283">
        <ele>921</ele>
        <time>2018-10-01T14:20:50Z</time>
      </trkpt>
      <trkpt lat="42.83451" lon="1.53291">
        <ele>920</ele>
        <time>2018-10-01T14:21:20Z</time>
      </trkpt>
      <trkpt lat="42.83462" lon="1.53294">
        <ele>917</ele>
        <time>2018-10-01T14:21:26Z</time>
      </trkpt>
      <trkpt lat="42.8347" lon="1.533">
        <ele>918</ele>
        <time>2018-10-01T14:21:34Z</time>
      </trkpt>
      <trkpt lat="42.83478" lon="1.53307">
        <ele>919</ele>
        <time>2018-10-01T14:21:43Z</time>
      </trkpt>
      <trkpt lat="42.83488" lon="1.53305">
        <ele>918</ele>
        <time>2018-10-01T14:22:20Z</time>
      </trkpt>
      <trkpt lat="42.83499" lon="1.533">
        <ele>916</ele>
        <time>2018-10-01T14:22:25Z</time>
      </trkpt>
      <trkpt lat="42.83508" lon="1.53303">
        <ele>916</ele>
        <time>2018-10-01T14:22:31Z</time>
      </trkpt>
      <trkpt lat="42.83509" lon="1.53317">
        <ele>915</ele>
        <time>2018-10-01T14:22:37Z</time>
      </trkpt>
      <trkpt lat="42.83521" lon="1.53317">
        <ele>908</ele>
        <time>2018-10-01T14:23:00Z</time>
      </trkpt>
      <trkpt lat="42.83531" lon="1.53324">
        <ele>907</ele>
        <time>2018-10-01T14:23:09Z</time>
      </trkpt>
      <trkpt lat="42.8354" lon="1.53328">
        <ele>904</ele>
        <time>2018-10-01T14:23:18Z</time>
      </trkpt>
      <trkpt lat="42.83547" lon="1.53335">
        <ele>904</ele>
        <time>2018-10-01T14:23:26Z</time>
      </trkpt>
      <trkpt lat="42.83556" lon="1.53339">
        <ele>900</ele>
        <time>2018-10-01T14:23:38Z</time>
      </trkpt>
      <trkpt lat="42.83566" lon="1.5334">
        <ele>897</ele>
        <time>2018-10-01T14:23:46Z</time>
      </trkpt>
      <trkpt lat="42.83576" lon="1.53342">
        <ele>896</ele>
        <time>2018-10-01T14:23:55Z</time>
      </trkpt>
      <trkpt lat="42.83586" lon="1.53342">
        <ele>894</ele>
        <time>2018-10-01T14:24:06Z</time>
      </trkpt>
      <trkpt lat="42.83595" lon="1.53337">
        <ele>889</ele>
        <time>2018-10-01T14:24:13Z</time>
      </trkpt>
      <trkpt lat="42.836" lon="1.53349">
        <ele>890</ele>
        <time>2018-10-01T14:24:17Z</time>
      </trkpt>
      <trkpt lat="42.8361" lon="1.53347">
        <ele>888</ele>
        <time>2018-10-01T14:24:26Z</time>
      </trkpt>
      <trkpt lat="42.8362" lon="1.53348">
        <ele>889</ele>
        <time>2018-10-01T14:24:36Z</time>
      </trkpt>
      <trkpt lat="42.83628" lon="1.53358">
        <ele>888</ele>
        <time>2018-10-01T14:24:45Z</time>
      </trkpt>
      <trkpt lat="42.83638" lon="1.53355">
        <ele>889</ele>
        <time>2018-10-01T14:24:56Z</time>
      </trkpt>
      <trkpt lat="42.83646" lon="1.53363">
        <ele>885</ele>
        <time>2018-10-01T14:25:09Z</time>
      </trkpt>
      <trkpt lat="42.83655" lon="1.53363">
        <ele>885</ele>
        <time>2018-10-01T14:25:58Z</time>
      </trkpt>
      <trkpt lat="42.83665" lon="1.53364">
        <ele>883</ele>
        <time>2018-10-01T14:26:10Z</time>
      </trkpt>
      <trkpt lat="42.83674" lon="1.53366">
        <ele>882</ele>
        <time>2018-10-01T14:26:16Z</time>
      </trkpt>
      <trkpt lat="42.83683" lon="1.53373">
        <ele>883</ele>
        <time>2018-10-01T14:26:25Z</time>
      </trkpt>
      <trkpt lat="42.83696" lon="1.53368">
        <ele>875</ele>
        <time>2018-10-01T14:26:55Z</time>
      </trkpt>
      <trkpt lat="42.83705" lon="1.53372">
        <ele>872</ele>
        <time>2018-10-01T14:26:58Z</time>
      </trkpt>
      <trkpt lat="42.83694" lon="1.53365">
        <ele>871.9</ele>
      </trkpt>
      <trkpt lat="42.83682" lon="1.53376">
        <ele>872.4</ele>
      </trkpt>
      <trkpt lat="42.83673" lon="1.5337">
        <ele>872.9</ele>
      </trkpt>
      <trkpt lat="42.83644" lon="1.53367">
        <ele>880.6</ele>
      </trkpt>
      <trkpt lat="42.83634" lon="1.53352">
        <ele>881.3</ele>
      </trkpt>
      <trkpt lat="42.83626" lon="1.53358">
        <ele>881.8</ele>
      </trkpt>
      <trkpt lat="42.83616" lon="1.5335">
        <ele>882.8</ele>
      </trkpt>
      <trkpt lat="42.83598" lon="1.53351">
        <ele>884.5</ele>
      </trkpt>
      <trkpt lat="42.83593" lon="1.53341">
        <ele>886.1</ele>
      </trkpt>
      <trkpt lat="42.83556" lon="1.53342">
        <ele>892.2</ele>
      </trkpt>
      <trkpt lat="42.83541" lon="1.53332">
        <ele>896.3</ele>
      </trkpt>
      <trkpt lat="42.83538" lon="1.5333">
        <ele>896.6</ele>
      </trkpt>
      <trkpt lat="42.83525" lon="1.53328">
        <ele>898</ele>
      </trkpt>
      <trkpt lat="42.83523" lon="1.53323">
        <ele>898.1</ele>
      </trkpt>
      <trkpt lat="42.83502" lon="1.53314">
        <ele>899.2</ele>
      </trkpt>
      <trkpt lat="42.83503" lon="1.53309">
        <ele>899</ele>
      </trkpt>
      <trkpt lat="42.83497" lon="1.53306">
        <ele>906.8</ele>
      </trkpt>
      <trkpt lat="42.83481" lon="1.5331">
        <ele>907.6</ele>
      </trkpt>
      <trkpt lat="42.8346" lon="1.53299">
        <ele>910.2</ele>
      </trkpt>
      <trkpt lat="42.83444" lon="1.53296">
        <ele>911.7</ele>
      </trkpt>
      <trkpt lat="42.83427" lon="1.53308">
        <ele>912.9</ele>
      </trkpt>
      <trkpt lat="42.83407" lon="1.53338">
        <ele>917.4</ele>
      </trkpt>
      <trkpt lat="42.83393" lon="1.53357">
        <ele>918.9</ele>
      </trkpt>
      <trkpt lat="42.83379" lon="1.53375">
        <ele>919.6</ele>
      </trkpt>
      <trkpt lat="42.83357" lon="1.53383">
        <ele>921.4</ele>
      </trkpt>
      <trkpt lat="42.83331" lon="1.53402">
        <ele>933.6</ele>
      </trkpt>
      <trkpt lat="42.83309" lon="1.53418">
        <ele>937.7</ele>
      </trkpt>
      <trkpt lat="42.83293" lon="1.53422">
        <ele>942.3</ele>
      </trkpt>
      <trkpt lat="42.83285" lon="1.53412">
        <ele>945.4</ele>
      </trkpt>
      <trkpt lat="42.83276" lon="1.53364">
        <ele>947.9</ele>
      </trkpt>
      <trkpt lat="42.83263" lon="1.53329">
        <ele>956.7</ele>
      </trkpt>
      <trkpt lat="42.83249" lon="1.53299">
        <ele>971.7</ele>
      </trkpt>
      <trkpt lat="42.83226" lon="1.53273">
        <ele>973.1</ele>
      </trkpt>
      <trkpt lat="42.83186" lon="1.53253">
        <ele>981.8</ele>
      </trkpt>
      <trkpt lat="42.83149" lon="1.53233">
        <ele>992.9</ele>
      </trkpt>
      <trkpt lat="42.83108" lon="1.53217">
        <ele>999.2</ele>
      </trkpt>
      <trkpt lat="42.83084" lon="1.53213">
        <ele>1001.5</ele>
      </trkpt>
      <trkpt lat="42.83051" lon="1.53214">
        <ele>1020.8</ele>
      </trkpt>
      <trkpt lat="42.83043" lon="1.53219">
        <ele>1022.4</ele>
      </trkpt>
      <trkpt lat="42.83037" lon="1.53233">
        <ele>1025.1</ele>
      </trkpt>
      <trkpt lat="42.83" lon="1.53308">
        <ele>1046</ele>
      </trkpt>
      <trkpt lat="42.82982" lon="1.53367">
        <ele>1069.4</ele>
      </trkpt>
      <trkpt lat="42.8296" lon="1.53394">
        <ele>1073.6</ele>
      </trkpt>
      <trkpt lat="42.82942" lon="1.5341">
        <ele>1079.9</ele>
      </trkpt>
      <trkpt lat="42.82918" lon="1.53447">
        <ele>1077.4</ele>
      </trkpt>
      <trkpt lat="42.82885" lon="1.53522">
        <ele>1102.8</ele>
      </trkpt>
      <trkpt lat="42.82881" lon="1.53552">
        <ele>1103.7</ele>
      </trkpt>
      <trkpt lat="42.82881" lon="1.53602">
        <ele>1097.6</ele>
      </trkpt>
      <trkpt lat="42.82872" lon="1.53621">
        <ele>1099.4</ele>
      </trkpt>
      <trkpt lat="42.82851" lon="1.53646">
        <ele>1103.2</ele>
      </trkpt>
      <trkpt lat="42.82843" lon="1.53663">
        <ele>1106.8</ele>
      </trkpt>
      <trkpt lat="42.8284" lon="1.53707">
        <ele>1097</ele>
      </trkpt>
      <trkpt lat="42.82833" lon="1.53726">
        <ele>1117.5</ele>
      </trkpt>
      <trkpt lat="42.82819" lon="1.53755">
        <ele>1111.5</ele>
      </trkpt>
      <trkpt lat="42.82797" lon="1.5379">
        <ele>1118.6</ele>
      </trkpt>
      <trkpt lat="42.82785" lon="1.53812">
        <ele>1120.8</ele>
      </trkpt>
      <trkpt lat="42.82763" lon="1.53843">
        <ele>1126.1</ele>
      </trkpt>
      <trkpt lat="42.8273" lon="1.53874">
        <ele>1145.2</ele>
      </trkpt>
      <trkpt lat="42.82704" lon="1.53896">
        <ele>1149.5</ele>
      </trkpt>
      <trkpt lat="42.82693" lon="1.53913">
        <ele>1152.6</ele>
      </trkpt>
      <trkpt lat="42.82687" lon="1.5395">
        <ele>1149.9</ele>
      </trkpt>
      <trkpt lat="42.8268" lon="1.53958">
        <ele>1150.4</ele>
      </trkpt>
      <trkpt lat="42.82669" lon="1.53952">
        <ele>1151.7</ele>
      </trkpt>
      <trkpt lat="42.82659" lon="1.53932">
        <ele>1170.7</ele>
      </trkpt>
      <trkpt lat="42.82652" lon="1.53894">
        <ele>1176.6</ele>
      </trkpt>
      <trkpt lat="42.82636" lon="1.53772">
        <ele>1190.1</ele>
      </trkpt>
      <trkpt lat="42.82634" lon="1.5375">
        <ele>1197.1</ele>
      </trkpt>
      <trkpt lat="42.82634" lon="1.53737">
        <ele>1197.9</ele>
      </trkpt>
      <trkpt lat="42.82626" lon="1.53732">
        <ele>1200.5</ele>
      </trkpt>
      <trkpt lat="42.82616" lon="1.53728">
        <ele>1202.7</ele>
      </trkpt>
      <trkpt lat="42.82601" lon="1.53731">
        <ele>1205.5</ele>
      </trkpt>
      <trkpt lat="42.82589" lon="1.53738">
        <ele>1208</ele>
      </trkpt>
      <trkpt lat="42.82576" lon="1.53748">
        <ele>1215.1</ele>
      </trkpt>
      <trkpt lat="42.82563" lon="1.53764">
        <ele>1217.9</ele>
      </trkpt>
      <trkpt lat="42.82555" lon="1.53783">
        <ele>1219.4</ele>
      </trkpt>
      <trkpt lat="42.82542" lon="1.53801">
        <ele>1221</ele>
      </trkpt>
      <trkpt lat="42.82541" lon="1.5381">
        <ele>1221</ele>
      </trkpt>
      <trkpt lat="42.82528" lon="1.53823">
        <ele>1224.4</ele>
      </trkpt>
      <trkpt lat="42.82524" lon="1.53779">
        <ele>1224.1</ele>
      </trkpt>
      <trkpt lat="42.82522" lon="1.53762">
        <ele>1225.5</ele>
      </trkpt>
      <trkpt lat="42.82528" lon="1.53721">
        <ele>1224.4</ele>
      </trkpt>
      <trkpt lat="42.8254" lon="1.53684">
        <ele>1223.3</ele>
      </trkpt>
      <trkpt lat="42.82559" lon="1.53664">
        <ele>1219.6</ele>
      </trkpt>
      <trkpt lat="42.82545" lon="1.53663">
        <ele>1219.9</ele>
      </trkpt>
      <trkpt lat="42.82521" lon="1.53684">
        <ele>1224.6</ele>
      </trkpt>
      <trkpt lat="42.82502" lon="1.53719">
        <ele>1226.3</ele>
      </trkpt>
      <trkpt lat="42.82493" lon="1.53752">
        <ele>1232.7</ele>
      </trkpt>
      <trkpt lat="42.82475" lon="1.53788">
        <ele>1232.8</ele>
      </trkpt>
      <trkpt lat="42.82472" lon="1.5381">
        <ele>1233.5</ele>
      </trkpt>
      <trkpt lat="42.8246" lon="1.53828">
        <ele>1233.8</ele>
      </trkpt>
      <trkpt lat="42.8246" lon="1.53843">
        <ele>1239.8</ele>
      </trkpt>
      <trkpt lat="42.82451" lon="1.53852">
        <ele>1240.4</ele>
      </trkpt>
      <trkpt lat="42.82431" lon="1.53859">
        <ele>1240.9</ele>
      </trkpt>
      <trkpt lat="42.82349" lon="1.53921">
        <ele>1256.4</ele>
      </trkpt>
      <trkpt lat="42.8229" lon="1.53945">
        <ele>1264.9</ele>
      </trkpt>
      <trkpt lat="42.82268" lon="1.53874">
        <ele>1256.8</ele>
      </trkpt>
      <trkpt lat="42.82264" lon="1.53827">
        <ele>1255.2</ele>
      </trkpt>
      <trkpt lat="42.82231" lon="1.53775">
        <ele>1266.8</ele>
      </trkpt>
      <trkpt lat="42.82185" lon="1.53704">
        <ele>1264.6</ele>
      </trkpt>
      <trkpt lat="42.82261" lon="1.53829">
        <ele>1256.7</ele>
      </trkpt>
      <trkpt lat="42.82264" lon="1.53872">
        <ele>1257.2</ele>
      </trkpt>
      <trkpt lat="42.82289" lon="1.53953">
        <ele>1265.7</ele>
      </trkpt>
      <trkpt lat="42.82322" lon="1.53972">
        <ele>1267</ele>
      </trkpt>
      <trkpt lat="42.82357" lon="1.5405">
        <ele>1279.2</ele>
      </trkpt>
      <trkpt lat="42.82325" lon="1.54086">
        <ele>1297.2</ele>
      </trkpt>
      <trkpt lat="42.82289" lon="1.54151">
        <ele>1308.8</ele>
      </trkpt>
      <trkpt lat="42.82262" lon="1.54191">
        <ele>1327.7</ele>
      </trkpt>
      <trkpt lat="42.82078" lon="1.54211">
        <ele>1369</ele>
      </trkpt>
      <trkpt lat="42.8198" lon="1.54219">
        <ele>1392.4</ele>
      </trkpt>
      <trkpt lat="42.81952" lon="1.54226">
        <ele>1396.6</ele>
      </trkpt>
      <trkpt lat="42.81925" lon="1.5426">
        <ele>1407.7</ele>
      </trkpt>
      <trkpt lat="42.81905" lon="1.54277">
        <ele>1415.8</ele>
      </trkpt>
      <trkpt lat="42.81869" lon="1.54273">
        <ele>1419.2</ele>
      </trkpt>
      <trkpt lat="42.81823" lon="1.54318">
        <ele>1422.6</ele>
      </trkpt>
      <trkpt lat="42.81824" lon="1.54286">
        <ele>1425.5</ele>
      </trkpt>
      <trkpt lat="42.81808" lon="1.54269">
        <ele>1426.8</ele>
      </trkpt>
      <trkpt lat="42.81721" lon="1.54181">
        <ele>1449.1</ele>
      </trkpt>
      <trkpt lat="42.81701" lon="1.54133">
        <ele>1464.2</ele>
      </trkpt>
      <trkpt lat="42.81654" lon="1.54043">
        <ele>1492.9</ele>
      </trkpt>
      <trkpt lat="42.81636" lon="1.5402">
        <ele>1497.1</ele>
      </trkpt>
      <trkpt lat="42.81619" lon="1.53966">
        <ele>1520.6</ele>
      </trkpt>
      <trkpt lat="42.81592" lon="1.53919">
        <ele>1536.4</ele>
      </trkpt>
      <trkpt lat="42.81575" lon="1.53872">
        <ele>1556.7</ele>
      </trkpt>
      <trkpt lat="42.81573" lon="1.53831">
        <ele>1574.2</ele>
      </trkpt>
      <trkpt lat="42.81548" lon="1.53788">
        <ele>1579.6</ele>
      </trkpt>
      <trkpt lat="42.81518" lon="1.53762">
        <ele>1588</ele>
      </trkpt>
      <trkpt lat="42.81369" lon="1.53578">
        <ele>1646.7</ele>
      </trkpt>
      <trkpt lat="42.81329" lon="1.53509">
        <ele>1661</ele>
      </trkpt>
      <trkpt lat="42.81254" lon="1.53466">
        <ele>1668.9</ele>
      </trkpt>
      <trkpt lat="42.81186" lon="1.53365">
        <ele>1703.7</ele>
      </trkpt>
      <trkpt lat="42.81128" lon="1.53281">
        <ele>1719.5</ele>
      </trkpt>
      <trkpt lat="42.81106" lon="1.53253">
        <ele>1723.3</ele>
      </trkpt>
      <trkpt lat="42.81071" lon="1.53223">
        <ele>1732.1</ele>
      </trkpt>
      <trkpt lat="42.81049" lon="1.53159">
        <ele>1748.2</ele>
      </trkpt>
      <trkpt lat="42.8103" lon="1.53041">
        <ele>1760.8</ele>
      </trkpt>
      <trkpt lat="42.81" lon="1.52989">
        <ele>1766.6</ele>
      </trkpt>
      <trkpt lat="42.80963" lon="1.52908">
        <ele>1779.6</ele>
      </trkpt>
      <trkpt lat="42.80953" lon="1.52835">
        <ele>1785</ele>
      </trkpt>
      <trkpt lat="42.8095" lon="1.52779">
        <ele>1798.1</ele>
      </trkpt>
      <trkpt lat="42.80937" lon="1.52721">
        <ele>1808.7</ele>
      </trkpt>
      <trkpt lat="42.80934" lon="1.52659">
        <ele>1816.6</ele>
      </trkpt>
      <trkpt lat="42.80922" lon="1.52597">
        <ele>1820.7</ele>
      </trkpt>
      <trkpt lat="42.80948" lon="1.52569">
        <ele>1816.7</ele>
      </trkpt>
      <trkpt lat="42.80922" lon="1.52564">
        <ele>1820.8</ele>
      </trkpt>
      <trkpt lat="42.80942" lon="1.52541">
        <ele>1817.1</ele>
      </trkpt>
      <trkpt lat="42.80937" lon="1.52519">
        <ele>1818.3</ele>
      </trkpt>
      <trkpt lat="42.80928" lon="1.52504">
        <ele>1821.2</ele>
      </trkpt>
      <trkpt lat="42.80923" lon="1.52466">
        <ele>1819.1</ele>
      </trkpt>
      <trkpt lat="42.80917" lon="1.52425">
        <ele>1822.5</ele>
      </trkpt>
      <trkpt lat="42.80925" lon="1.52391">
        <ele>1818.3</ele>
      </trkpt>
      <trkpt lat="42.80944" lon="1.52376">
        <ele>1815.9</ele>
      </trkpt>
      <trkpt lat="42.80956" lon="1.52328">
        <ele>1813.4</ele>
      </trkpt>
      <trkpt lat="42.80978" lon="1.52249">
        <ele>1812.4</ele>
      </trkpt>
      <trkpt lat="42.80996" lon="1.52202">
        <ele>1816</ele>
      </trkpt>
      <trkpt lat="42.81026" lon="1.5215">
        <ele>1816.9</ele>
      </trkpt>
      <trkpt lat="42.81051" lon="1.52097">
        <ele>1816.1</ele>
      </trkpt>
      <trkpt lat="42.811" lon="1.51908">
        <ele>1821.6</ele>
      </trkpt>
      <trkpt lat="42.81144" lon="1.51802">
        <ele>1835.2</ele>
      </trkpt>
      <trkpt lat="42.81188" lon="1.51766">
        <ele>1818.9</ele>
      </trkpt>
      <trkpt lat="42.81244" lon="1.51699">
        <ele>1823.7</ele>
      </trkpt>
      <trkpt lat="42.81285" lon="1.51667">
        <ele>1805.5</ele>
      </trkpt>
      <trkpt lat="42.81318" lon="1.51603">
        <ele>1819.2</ele>
      </trkpt>
      <trkpt lat="42.81339" lon="1.51541">
        <ele>1813.4</ele>
      </trkpt>
      <trkpt lat="42.81366" lon="1.51502">
        <ele>1812.6</ele>
      </trkpt>
      <trkpt lat="42.8138" lon="1.51444">
        <ele>1814.5</ele>
      </trkpt>
      <trkpt lat="42.81377" lon="1.51285">
        <ele>1814.8</ele>
      </trkpt>
      <trkpt lat="42.81367" lon="1.51227">
        <ele>1812.8</ele>
      </trkpt>
      <trkpt lat="42.81348" lon="1.51156">
        <ele>1814.7</ele>
      </trkpt>
      <trkpt lat="42.81348" lon="1.51122">
        <ele>1805.6</ele>
      </trkpt>
      <trkpt lat="42.81361" lon="1.51094">
        <ele>1802.1</ele>
      </trkpt>
      <trkpt lat="42.81394" lon="1.5106">
        <ele>1778.6</ele>
      </trkpt>
      <trkpt lat="42.81416" lon="1.51008">
        <ele>1759.8</ele>
      </trkpt>
      <trkpt lat="42.81433" lon="1.50959">
        <ele>1729.7</ele>
      </trkpt>
      <trkpt lat="42.81433" lon="1.50927">
        <ele>1728.8</ele>
      </trkpt>
      <trkpt lat="42.81458" lon="1.50886">
        <ele>1715.4</ele>
      </trkpt>
      <trkpt lat="42.81485" lon="1.50849">
        <ele>1709.3</ele>
      </trkpt>
      <trkpt lat="42.81509" lon="1.50834">
        <ele>1699.6</ele>
      </trkpt>
      <trkpt lat="42.81512" lon="1.50809">
        <ele>1699.8</ele>
      </trkpt>
    </trkseg>
  </trk>
</gpx>